createdAt,value
2018-04-23T00:01:05.183Z,99.90
2018-04-23T00:03:31.563Z,99.90
2018-04-23T00:05:57.952Z,99.90
2018-04-23T00:08:25.084Z,99.90
2018-04-23T00:10:51.472Z,99.90
2018-04-23T00:13:17.874Z,99.90
2018-04-23T00:15:44.252Z,99.90
2018-04-23T00:18:10.636Z,99.90
2018-04-23T00:20:37.011Z,99.90
2018-04-23T00:23:03.456Z,99.90
2018-04-23T00:25:30.551Z,99.90
2018-04-23T00:27:56.948Z,99.90
2018-04-23T00:30:23.421Z,99.90
2018-04-23T00:32:49.814Z,99.90
2018-04-23T00:35:16.172Z,99.90
2018-04-23T00:37:42.580Z,99.90
2018-04-23T00:40:08.977Z,99.90
2018-04-23T00:42:36.110Z,99.90
2018-04-23T00:45:02.522Z,99.90
2018-04-23T00:47:28.908Z,99.90
2018-04-23T00:49:55.288Z,99.90
2018-04-23T00:52:21.683Z,99.90
2018-04-23T00:54:48.064Z,99.90
2018-04-23T00:57:14.492Z,99.90
2018-04-23T00:59:40.887Z,99.90
2018-04-23T01:02:07.262Z,99.90
2018-04-23T01:04:33.688Z,99.90
2018-04-23T01:07:00.067Z,99.90
2018-04-23T01:09:27.242Z,99.90
2018-04-23T01:11:53.655Z,99.90
2018-04-23T01:14:20.068Z,99.90
2018-04-23T01:16:46.484Z,99.90
2018-04-23T01:19:12.900Z,99.90
2018-04-23T01:21:39.323Z,99.90
2018-04-23T01:24:05.710Z,99.90
2018-04-23T01:26:32.862Z,99.90
2018-04-23T01:29:00.002Z,99.90
2018-04-23T01:31:26.413Z,99.90
2018-04-23T01:33:52.824Z,99.90
2018-04-23T01:36:19.208Z,99.90
2018-04-23T01:38:45.654Z,99.90
2018-04-23T01:41:12.767Z,99.90
2018-04-23T01:43:39.164Z,99.90
2018-04-23T01:46:05.568Z,99.90
2018-04-23T01:48:32.706Z,99.90
2018-04-23T01:50:59.100Z,99.90
2018-04-23T01:53:25.495Z,99.90
2018-04-23T01:55:52.644Z,99.90
2018-04-23T01:58:19.804Z,99.90
2018-04-23T02:00:46.961Z,99.90
2018-04-23T02:03:13.378Z,99.90
2018-04-23T02:05:40.508Z,99.90
2018-04-23T02:08:06.975Z,99.90
2018-04-23T02:10:34.147Z,99.90
2018-04-23T02:13:00.558Z,99.90
2018-04-23T02:15:27.684Z,99.90
2018-04-23T02:17:54.118Z,99.90
2018-04-23T02:20:20.505Z,99.90
2018-04-23T02:22:46.913Z,99.90
2018-04-23T02:25:14.047Z,99.90
2018-04-23T02:27:40.411Z,99.90
2018-04-23T02:30:06.795Z,99.90
2018-04-23T02:32:33.168Z,99.90
2018-04-23T02:34:59.574Z,99.90
2018-04-23T02:37:25.945Z,99.90
2018-04-23T02:39:52.326Z,99.90
2018-04-23T02:42:18.755Z,99.90
2018-04-23T02:44:45.876Z,99.90
2018-04-23T02:47:12.271Z,99.90
2018-04-23T02:49:38.653Z,99.90
2018-04-23T02:52:05.075Z,99.90
2018-04-23T02:54:31.484Z,99.90
2018-04-23T02:56:58.603Z,99.90
2018-04-23T02:59:25.018Z,99.90
2018-04-23T03:01:51.435Z,99.90
2018-04-23T03:04:17.854Z,99.90
2018-04-23T03:06:44.236Z,99.90
2018-04-23T03:09:10.641Z,99.90
2018-04-23T03:11:37.023Z,99.90
2018-04-23T03:14:03.521Z,99.90
2018-04-23T03:16:29.950Z,99.90
2018-04-23T03:18:56.363Z,99.90
2018-04-23T03:21:22.771Z,99.90
2018-04-23T03:23:49.897Z,99.90
2018-04-23T03:26:16.290Z,99.90
2018-04-23T03:28:42.668Z,99.90
2018-04-23T03:31:09.067Z,99.90
2018-04-23T03:33:35.459Z,99.90
2018-04-23T03:36:02.592Z,99.90
2018-04-23T03:38:28.996Z,99.90
2018-04-23T03:40:55.801Z,99.90
2018-04-23T03:43:22.200Z,99.90
2018-04-23T03:45:48.592Z,99.90
2018-04-23T03:48:14.983Z,99.90
2018-04-23T03:50:42.153Z,99.90
2018-04-23T03:53:09.294Z,99.90
2018-04-23T03:55:36.439Z,99.90
2018-04-23T03:58:02.882Z,99.90
2018-04-23T04:00:30.041Z,99.90
2018-04-23T04:02:56.433Z,99.90
2018-04-23T04:05:22.819Z,99.90
2018-04-23T04:07:49.205Z,99.90
2018-04-23T04:10:15.635Z,99.90
2018-04-23T04:12:54.208Z,99.90
2018-04-23T04:15:32.924Z,99.90
2018-04-23T04:21:07.247Z,99.90
2018-04-23T04:23:34.392Z,99.90
2018-04-23T04:26:00.758Z,99.90
2018-04-23T04:28:27.163Z,99.90
2018-04-23T04:30:54.481Z,99.90
2018-04-23T04:33:20.896Z,99.90
2018-04-23T04:35:47.290Z,99.90
2018-04-23T04:38:14.458Z,99.90
2018-04-23T04:40:41.579Z,99.90
2018-04-23T04:43:07.988Z,99.90
2018-04-23T04:45:34.404Z,99.90
2018-04-23T04:48:00.807Z,99.90
2018-04-23T04:50:27.201Z,99.90
2018-04-23T04:52:53.618Z,99.90
2018-04-23T04:55:19.993Z,99.90
2018-04-23T04:57:47.133Z,99.90
2018-04-23T05:00:13.530Z,99.90
2018-04-23T05:02:39.966Z,99.90
2018-04-23T05:05:06.380Z,99.90
2018-04-23T05:07:32.755Z,99.90
2018-04-23T05:09:59.204Z,99.90
2018-04-23T05:12:25.590Z,99.90
2018-04-23T05:14:52.013Z,99.90
2018-04-23T05:17:18.415Z,99.90
2018-04-23T05:19:45.571Z,99.90
2018-04-23T05:22:12.799Z,99.90
2018-04-23T05:24:39.236Z,99.90
2018-04-23T05:27:05.723Z,99.90
2018-04-23T05:29:32.123Z,99.90
2018-04-23T05:31:59.277Z,99.90
2018-04-23T05:34:26.439Z,99.90
2018-04-23T05:36:53.556Z,99.90
2018-04-23T05:39:19.960Z,99.90
2018-04-23T05:41:46.357Z,99.90
2018-04-23T05:44:13.508Z,99.90
2018-04-23T05:46:39.901Z,99.90
2018-04-23T05:49:06.276Z,99.90
2018-04-23T05:51:33.437Z,99.90
2018-04-23T05:54:00.561Z,99.90
2018-04-23T05:56:27.045Z,99.90
2018-04-23T05:58:53.435Z,99.90
2018-04-23T06:01:38.699Z,99.90
2018-04-23T06:04:06.247Z,99.90
2018-04-23T06:06:32.652Z,99.90
2018-04-23T06:08:59.089Z,99.90
2018-04-23T06:11:25.553Z,99.90
2018-04-23T06:13:53.025Z,99.90
2018-04-23T06:16:19.436Z,99.90
2018-04-23T06:18:45.848Z,99.90
2018-04-23T06:21:14.521Z,99.90
2018-04-23T06:23:40.984Z,99.90
2018-04-23T06:26:07.373Z,99.90
2018-04-23T06:28:34.561Z,99.90
2018-04-23T06:31:01.053Z,99.90
2018-04-23T06:33:28.214Z,99.90
2018-04-23T06:35:55.357Z,99.90
2018-04-23T06:38:22.497Z,99.90
2018-04-23T06:40:49.659Z,99.90
2018-04-23T06:43:16.819Z,99.90
2018-04-23T06:45:44.233Z,99.90
2018-04-23T06:48:10.645Z,99.90
2018-04-23T06:50:37.012Z,99.90
2018-04-23T06:53:03.497Z,99.90
2018-04-23T06:55:29.869Z,99.90
2018-04-23T06:57:56.272Z,99.90
2018-04-23T07:00:22.676Z,99.90
2018-04-23T07:02:49.850Z,99.90
2018-04-23T07:05:16.965Z,99.90
2018-04-23T07:07:43.356Z,99.90
2018-04-23T07:10:09.757Z,99.90
2018-04-23T07:12:36.876Z,99.90
2018-04-23T07:15:03.330Z,99.90
2018-04-23T07:17:29.698Z,99.90
2018-04-23T07:19:56.172Z,99.90
2018-04-23T07:22:22.548Z,99.90
2018-04-23T07:24:49.797Z,99.90
2018-04-23T07:27:16.933Z,99.90
2018-04-23T07:29:43.378Z,99.90
2018-04-23T07:32:10.567Z,99.90
2018-04-23T07:34:36.946Z,99.90
2018-04-23T07:37:03.351Z,99.90
2018-04-23T07:39:29.719Z,99.90
2018-04-23T07:41:56.112Z,99.90
2018-04-23T07:44:22.498Z,99.90
2018-04-23T07:46:49.628Z,99.90
2018-04-23T07:49:16.007Z,99.90
2018-04-23T07:51:42.423Z,99.90
2018-04-23T07:54:09.609Z,99.90
2018-04-23T07:56:36.004Z,99.90
2018-04-23T07:59:03.172Z,99.90
2018-04-23T08:01:29.536Z,99.90
2018-04-23T08:03:55.976Z,99.90
2018-04-23T08:06:22.376Z,99.90
2018-04-23T08:08:48.781Z,99.80
2018-04-23T08:11:15.173Z,99.70
2018-04-23T08:13:41.556Z,98.90
2018-04-23T08:16:08.708Z,97.60
2018-04-23T08:18:35.844Z,98.40
2018-04-23T08:21:02.238Z,98.30
2018-04-23T08:23:28.612Z,94.80
2018-04-23T08:25:54.999Z,95.20
2018-04-23T08:28:21.373Z,93.90
2018-04-23T08:30:47.766Z,94.00
2018-04-23T08:33:14.234Z,94.30
2018-04-23T08:35:40.623Z,92.60
2018-04-23T08:38:07.834Z,92.40
2018-04-23T08:40:34.203Z,92.30
2018-04-23T08:43:00.609Z,94.10
2018-04-23T08:45:26.976Z,93.60
2018-04-23T08:47:53.402Z,91.40
2018-04-23T08:50:20.577Z,89.70
2018-04-23T08:52:47.693Z,91.80
2018-04-23T08:55:14.937Z,90.40
2018-04-23T08:57:42.089Z,87.80
2018-04-23T09:00:08.474Z,87.80
2018-04-23T09:02:38.646Z,86.80
2018-04-23T09:05:05.043Z,84.70
2018-04-23T09:07:31.427Z,85.20
2018-04-23T09:09:58.568Z,83.10
2018-04-23T09:12:25.685Z,81.60
2018-04-23T09:14:52.081Z,81.60
2018-04-23T09:17:18.472Z,78.90
2018-04-23T09:19:45.644Z,82.60
2018-04-23T09:22:12.791Z,80.90
2018-04-23T09:24:39.966Z,78.80
2018-04-23T09:27:06.365Z,78.90
2018-04-23T09:29:32.766Z,84.50
2018-04-23T09:31:59.148Z,78.40
2018-04-23T09:34:26.256Z,85.80
2018-04-23T09:36:52.687Z,86.00
2018-04-23T09:39:19.119Z,84.10
2018-04-23T09:41:45.544Z,80.00
2018-04-23T09:44:11.936Z,79.00
2018-04-23T09:46:39.073Z,79.80
2018-04-23T09:49:05.448Z,79.40
2018-04-23T09:51:31.836Z,81.30
2018-04-23T09:53:58.249Z,80.00
2018-04-23T09:56:24.637Z,82.90
2018-04-23T09:58:51.056Z,81.60
2018-04-23T10:01:20.094Z,81.40
2018-04-23T10:03:50.579Z,81.40
2018-04-23T10:06:17.718Z,86.10
2018-04-23T10:08:44.108Z,84.90
2018-04-23T10:11:10.483Z,80.70
2018-04-23T10:13:36.877Z,82.30
2018-04-23T10:16:03.248Z,82.20
2018-04-23T10:18:29.673Z,79.20
2018-04-23T10:20:56.148Z,77.60
2018-04-23T10:23:22.481Z,79.60
2018-04-23T10:25:49.619Z,74.30
2018-04-23T10:28:16.772Z,76.70
2018-04-23T10:30:43.948Z,76.10
2018-04-23T10:33:10.328Z,75.80
2018-04-23T10:35:36.758Z,75.60
2018-04-23T10:38:03.148Z,75.30
2018-04-23T10:40:29.584Z,70.70
2018-04-23T10:42:56.000Z,71.70
2018-04-23T10:45:23.178Z,77.70
2018-04-23T10:47:50.292Z,72.60
2018-04-23T10:50:16.665Z,72.50
2018-04-23T10:52:43.073Z,72.10
2018-04-23T10:55:10.220Z,72.20
2018-04-23T10:57:37.332Z,72.60
2018-04-23T11:00:03.776Z,72.50
2018-04-23T11:02:30.149Z,73.10
2018-04-23T11:04:57.306Z,79.70
2018-04-23T11:07:23.719Z,79.70
2018-04-23T11:09:50.844Z,78.00
2018-04-23T11:12:17.245Z,77.70
2018-04-23T11:14:43.617Z,76.80
2018-04-23T11:17:10.057Z,77.80
2018-04-23T11:19:36.436Z,78.10
2018-04-23T11:22:02.840Z,76.60
2018-04-23T11:24:29.964Z,77.60
2018-04-23T11:26:56.366Z,77.40
2018-04-23T11:29:22.767Z,79.70
2018-04-23T11:31:49.881Z,80.60
2018-04-23T11:34:16.263Z,80.60
2018-04-23T11:36:42.658Z,78.00
2018-04-23T11:39:09.066Z,72.40
2018-04-23T11:41:35.496Z,75.00
2018-04-23T11:44:01.902Z,72.30
2018-04-23T11:46:28.329Z,81.00
2018-04-23T11:48:54.721Z,81.40
2018-04-23T11:51:21.135Z,77.90
2018-04-23T11:53:47.525Z,73.80
2018-04-23T11:56:14.645Z,80.00
2018-04-23T11:58:41.008Z,79.70
2018-04-23T12:01:08.117Z,79.60
2018-04-23T12:03:34.507Z,79.70
2018-04-23T12:06:00.892Z,82.60
2018-04-23T12:08:27.303Z,84.40
2018-04-23T12:10:53.780Z,84.20
2018-04-23T12:13:20.127Z,83.70
2018-04-23T12:15:47.274Z,79.80
2018-04-23T12:18:14.386Z,81.60
2018-04-23T12:20:40.789Z,81.50
2018-04-23T12:23:07.165Z,80.80
2018-04-23T12:25:33.568Z,81.00
2018-04-23T12:27:59.975Z,86.40
2018-04-23T12:30:27.149Z,84.20
2018-04-23T12:32:53.548Z,84.20
2018-04-23T12:35:20.708Z,84.00
2018-04-23T12:37:47.848Z,82.00
2018-04-23T12:40:14.981Z,82.60
2018-04-23T12:42:41.421Z,82.50
2018-04-23T12:45:07.792Z,83.30
2018-04-23T12:47:34.248Z,87.90
2018-04-23T12:50:00.829Z,80.30
2018-04-23T12:52:27.248Z,84.40
2018-04-23T12:54:53.639Z,79.10
2018-04-23T12:57:20.044Z,83.30
2018-04-23T12:59:47.210Z,82.50
2018-04-23T13:02:14.389Z,83.80
2018-04-23T13:04:40.836Z,83.20
2018-04-23T13:07:07.230Z,80.70
2018-04-23T13:09:34.386Z,85.80
2018-04-23T13:12:00.756Z,85.50
2018-04-23T13:14:27.176Z,83.20
2018-04-23T13:16:53.748Z,78.70
2018-04-23T13:19:20.181Z,87.20
2018-04-23T13:21:46.648Z,88.00
2018-04-23T13:24:13.771Z,87.70
2018-04-23T13:26:40.211Z,87.80
2018-04-23T13:29:06.590Z,88.10
2018-04-23T13:31:32.955Z,87.40
2018-04-23T13:33:59.378Z,90.00
2018-04-23T13:36:25.903Z,91.00
2018-04-23T13:38:52.333Z,92.80
2018-04-23T13:41:18.736Z,92.70
2018-04-23T13:43:45.949Z,93.10
2018-04-23T13:46:12.431Z,93.10
2018-04-23T13:48:39.608Z,93.00
2018-04-23T13:51:06.023Z,93.00
2018-04-23T13:53:34.132Z,92.90
2018-04-23T13:56:01.373Z,93.50
2018-04-23T13:58:27.802Z,93.50
2018-04-23T14:00:54.303Z,95.40
2018-04-23T14:03:20.730Z,94.80
2018-04-23T14:05:47.104Z,95.00
2018-04-23T14:08:13.564Z,96.30
2018-04-23T14:10:39.933Z,97.20
2018-04-23T14:13:06.357Z,96.90
2018-04-23T14:15:32.732Z,98.30
2018-04-23T14:17:59.138Z,97.00
2018-04-23T14:20:25.529Z,97.00
2018-04-23T14:22:51.929Z,96.20
2018-04-23T14:25:19.065Z,97.80
2018-04-23T14:27:45.449Z,97.80
2018-04-23T14:30:11.901Z,97.50
2018-04-23T14:32:38.321Z,99.10
2018-04-23T14:35:04.772Z,99.20
2018-04-23T14:37:31.187Z,99.10
2018-04-23T14:39:57.557Z,99.80
2018-04-23T14:42:23.959Z,99.90
2018-04-23T14:44:50.336Z,99.90
2018-04-23T14:47:16.757Z,99.90
2018-04-23T14:49:43.135Z,99.90
2018-04-23T14:52:09.573Z,99.90
2018-04-23T14:54:35.973Z,99.90
2018-04-23T14:57:02.345Z,99.90
2018-04-23T14:59:28.757Z,99.90
2018-04-23T15:01:55.870Z,99.90
2018-04-23T15:04:22.265Z,99.90
2018-04-23T15:06:48.644Z,99.90
2018-04-23T15:09:15.030Z,99.90
2018-04-23T15:11:41.393Z,99.90
2018-04-23T15:14:07.788Z,99.90
2018-04-23T15:16:34.177Z,99.90
2018-04-23T15:19:00.602Z,99.90
2018-04-23T15:21:26.996Z,99.90
2018-04-23T15:23:53.372Z,99.90
2018-04-23T15:26:19.768Z,99.90
2018-04-23T15:28:46.134Z,99.90
2018-04-23T15:31:12.535Z,99.90
2018-04-23T15:33:38.904Z,99.90
2018-04-23T15:36:06.067Z,99.90
2018-04-23T15:38:32.445Z,99.90
2018-04-23T15:40:58.857Z,99.90
2018-04-23T15:43:26.040Z,99.90
2018-04-23T15:45:52.515Z,99.90
2018-04-23T15:48:18.975Z,99.90
2018-04-23T15:50:46.155Z,99.90
2018-04-23T15:53:12.558Z,99.90
2018-04-23T15:55:39.691Z,99.90
2018-04-23T15:58:06.102Z,99.90
2018-04-23T16:00:32.509Z,99.90
2018-04-23T16:02:58.937Z,99.90
2018-04-23T16:05:25.330Z,99.90
2018-04-23T16:07:51.774Z,99.90
2018-04-23T16:10:18.943Z,99.90
2018-04-23T16:12:46.085Z,99.90
2018-04-23T16:15:13.211Z,99.90
2018-04-23T16:17:39.624Z,99.90
2018-04-23T16:20:06.079Z,99.90
2018-04-23T16:22:32.447Z,99.90
2018-04-23T16:24:59.856Z,99.90
2018-04-23T16:27:26.248Z,99.90
2018-04-23T16:29:52.703Z,99.90
2018-04-23T16:32:19.152Z,99.90
2018-04-23T16:34:46.155Z,99.90
2018-04-23T16:37:13.315Z,99.90
2018-04-23T16:39:40.497Z,99.90
2018-04-23T16:42:06.924Z,99.90
2018-04-23T16:44:33.299Z,99.90
2018-04-23T16:46:59.708Z,99.90
2018-04-23T16:49:26.124Z,99.90
2018-04-23T16:51:52.538Z,99.90
2018-04-23T16:54:19.656Z,99.90
2018-04-23T16:56:46.052Z,99.90
2018-04-23T16:59:12.447Z,99.90
2018-04-23T17:01:39.577Z,99.90
2018-04-23T17:04:05.968Z,99.90
2018-04-23T17:06:32.418Z,99.90
2018-04-23T17:08:58.806Z,99.90
2018-04-23T17:11:25.944Z,99.90
2018-04-23T17:13:57.900Z,99.90
2018-04-23T17:16:24.271Z,99.90
2018-04-23T17:18:50.693Z,99.90
2018-04-23T17:21:17.814Z,99.90
2018-04-23T17:23:44.241Z,99.90
2018-04-23T17:26:10.625Z,99.90
2018-04-23T17:28:38.013Z,99.90
2018-04-23T17:31:04.444Z,99.90
2018-04-23T17:33:30.815Z,99.90
2018-04-23T17:35:57.979Z,99.90
2018-04-23T17:38:24.601Z,99.90
2018-04-23T17:40:51.084Z,99.90
2018-04-23T17:43:17.505Z,99.90
2018-04-23T17:45:43.885Z,99.90
2018-04-23T17:48:10.287Z,99.90
2018-04-23T17:50:36.752Z,99.90
2018-04-23T17:53:03.260Z,99.90
2018-04-23T17:55:29.720Z,99.90
2018-04-23T17:57:56.096Z,99.90
2018-04-23T18:00:23.290Z,99.90
2018-04-23T18:02:49.678Z,99.90
2018-04-23T18:05:16.079Z,99.90
2018-04-23T18:07:43.228Z,99.90
2018-04-23T18:10:09.627Z,99.90
2018-04-23T18:12:36.004Z,99.90
2018-04-23T18:15:02.440Z,99.90
2018-04-23T18:17:28.843Z,99.90
2018-04-23T18:19:55.718Z,99.90
2018-04-23T18:22:22.118Z,99.90
2018-04-23T18:24:48.530Z,99.90
2018-04-23T18:27:14.964Z,99.90
2018-04-23T18:29:42.465Z,99.90
2018-04-23T18:32:08.884Z,99.90
2018-04-23T18:34:35.309Z,99.90
2018-04-23T18:37:01.705Z,99.90
2018-04-23T18:39:28.098Z,99.90
2018-04-23T18:41:54.504Z,99.90
2018-04-23T18:44:21.654Z,99.90
2018-04-23T18:46:48.092Z,99.90
2018-04-23T18:49:14.464Z,99.90
2018-04-23T18:51:40.869Z,99.90
2018-04-23T18:54:07.261Z,99.90
2018-04-23T18:56:33.708Z,99.90
2018-04-23T18:59:00.952Z,99.90
2018-04-23T19:01:27.612Z,99.90
2018-04-23T19:03:54.787Z,99.90
2018-04-23T19:06:21.195Z,99.90
2018-04-23T19:08:48.383Z,99.90
2018-04-23T19:11:14.774Z,99.90
2018-04-23T19:13:42.389Z,99.90
2018-04-23T19:16:08.813Z,99.90
2018-04-23T19:18:35.235Z,99.90
2018-04-23T19:21:01.653Z,99.90
2018-04-23T19:23:28.033Z,99.90
2018-04-23T19:25:54.464Z,99.90
2018-04-23T19:28:20.878Z,99.90
2018-04-23T19:30:47.303Z,99.90
2018-04-23T19:33:13.792Z,99.90
2018-04-23T19:35:40.194Z,99.90
2018-04-23T19:38:06.614Z,99.90
2018-04-23T19:40:33.020Z,99.90
2018-04-23T19:42:59.487Z,99.90
2018-04-23T19:45:25.867Z,99.90
2018-04-23T19:47:52.275Z,99.90
2018-04-23T19:50:18.760Z,99.90
2018-04-23T19:52:45.897Z,99.90
2018-04-23T19:55:13.087Z,99.90
2018-04-23T19:57:39.584Z,99.90
2018-04-23T20:00:06.066Z,99.90
2018-04-23T20:02:32.454Z,99.90
2018-04-23T20:04:58.913Z,99.90
2018-04-23T20:07:26.092Z,99.90
2018-04-23T20:09:52.523Z,99.90
2018-04-23T20:12:18.948Z,99.90
2018-04-23T20:14:45.360Z,99.90
2018-04-23T20:17:12.520Z,99.90
2018-04-23T20:19:39.649Z,99.90
2018-04-23T20:22:06.088Z,99.90
2018-04-23T20:24:32.519Z,99.90
2018-04-23T20:26:58.923Z,99.90
2018-04-23T20:29:25.326Z,99.90
2018-04-23T20:31:51.700Z,99.90
2018-04-23T20:34:18.123Z,99.90
2018-04-23T20:36:44.551Z,99.90
2018-04-23T20:39:10.955Z,99.90
2018-04-23T20:41:37.351Z,99.90
2018-04-23T20:44:03.759Z,99.90
2018-04-23T20:46:30.147Z,99.90
2018-04-23T20:48:57.289Z,99.90
2018-04-23T20:51:24.466Z,99.90
2018-04-23T20:53:50.876Z,99.90
2018-04-23T20:56:17.999Z,99.90
2018-04-23T20:58:44.397Z,99.90
2018-04-23T21:01:10.770Z,99.90
2018-04-23T21:03:37.175Z,99.90
2018-04-23T21:06:03.577Z,99.90
2018-04-23T21:08:30.000Z,99.90
2018-04-23T21:10:57.100Z,99.90
2018-04-23T21:13:23.522Z,99.90
2018-04-23T21:15:49.900Z,99.90
2018-04-23T21:18:16.301Z,99.90
2018-04-23T21:20:42.709Z,99.90
2018-04-23T21:23:09.121Z,99.90
2018-04-23T21:25:36.265Z,99.90
2018-04-23T21:28:03.456Z,99.90
2018-04-23T21:30:29.859Z,99.90
2018-04-23T21:32:57.020Z,99.90
2018-04-23T21:35:24.174Z,99.90
2018-04-23T21:37:50.560Z,99.90
2018-04-23T21:40:16.968Z,99.90
2018-04-23T21:42:43.352Z,99.90
2018-04-23T21:45:09.756Z,99.90
2018-04-23T21:47:36.005Z,99.90
2018-04-23T21:50:03.193Z,99.90
2018-04-23T21:52:29.592Z,99.90
2018-04-23T21:54:56.738Z,99.90
2018-04-23T21:57:23.175Z,99.90
2018-04-23T21:59:49.595Z,99.90
2018-04-23T22:02:16.021Z,99.90
2018-04-23T22:04:42.432Z,99.90
2018-04-23T22:07:09.009Z,99.90
2018-04-23T22:09:35.476Z,99.90
2018-04-23T22:12:02.656Z,99.90
2018-04-23T22:14:29.070Z,99.90
2018-04-23T22:16:56.049Z,99.90
2018-04-23T22:19:22.448Z,99.90
2018-04-23T22:21:49.588Z,99.90
2018-04-23T22:24:15.986Z,99.90
2018-04-23T22:26:42.362Z,99.90
2018-04-23T22:29:09.494Z,99.90
2018-04-23T22:31:35.877Z,99.90
2018-04-23T22:34:02.272Z,99.90
2018-04-23T22:36:29.415Z,99.90
2018-04-23T22:38:55.814Z,99.90
2018-04-23T22:41:22.210Z,99.90
2018-04-23T22:43:48.611Z,99.90
2018-04-23T22:46:15.000Z,99.90
2018-04-23T22:48:41.380Z,99.90
2018-04-23T22:51:07.780Z,99.90
2018-04-23T22:53:34.168Z,99.90
2018-04-23T22:56:01.292Z,99.90
2018-04-23T22:58:27.840Z,99.90
2018-04-23T23:00:54.161Z,99.90
2018-04-23T23:03:20.580Z,99.90
2018-04-23T23:05:46.961Z,99.90
2018-04-23T23:08:14.135Z,99.90
2018-04-23T23:10:40.520Z,99.90
2018-04-23T23:13:06.887Z,99.90
2018-04-23T23:15:34.068Z,99.90
2018-04-23T23:18:00.442Z,99.90
2018-04-23T23:20:27.611Z,99.90
2018-04-23T23:22:54.736Z,99.90
2018-04-23T23:25:21.137Z,99.90
2018-04-23T23:27:47.528Z,99.90
2018-04-23T23:30:14.664Z,99.90
2018-04-23T23:32:41.049Z,99.90
2018-04-23T23:35:07.456Z,99.90
2018-04-23T23:37:34.616Z,99.90
2018-04-23T23:40:01.747Z,99.90
2018-04-23T23:42:28.182Z,99.90
2018-04-23T23:44:55.307Z,99.90
2018-04-23T23:47:21.696Z,99.90
2018-04-23T23:49:48.067Z,99.90
2018-04-23T23:52:14.472Z,99.90
2018-04-23T23:54:40.879Z,99.90
2018-04-23T23:57:08.034Z,99.90
2018-04-23T23:59:35.415Z,99.90
